Time;durP1;ratioP1;P1;durP2;ratioP2;P2;SDS_P1;SDS_P2;PMS_P1;PMS_P2;Temp;Humidity;BMP_temperature;BMP_pressure;BME280_temperature;BME280_humidity;BME280_pressure;Samples;Min_cycle;Max_cycle;Signal;HPM_P1;HPM_P2
2021/03/16 00:01:12;;;;;;;6.40;3.47;;;7.30;99.90;;;;;;10534801;28;20292;-78
2021/03/16 00:06:26;;;;;;;3.87;3.03;;;7.40;99.90;;;;;;10534994;28;20601;-78
2021/03/16 00:11:28;;;;;;;3.37;3.07;;;7.40;99.90;;;;;;10519040;28;20192;-77
2021/03/16 00:16:29;;;;;;;2.63;2.43;;;7.40;99.90;;;;;;10491328;28;20204;-78
2021/03/16 00:21:32;;;;;;;3.17;2.87;;;7.40;99.90;;;;;;10505767;28;20192;-79
2021/03/16 00:26:34;;;;;;;4.80;2.60;;;7.40;99.90;;;;;;10527399;28;20591;-79
2021/03/16 00:31:35;;;;;;;5.43;2.93;;;7.40;99.90;;;;;;10511185;28;20206;-78
2021/03/16 00:36:39;;;;;;;3.50;2.73;;;7.50;99.90;;;;;;10529842;28;20625;-78
2021/03/16 00:41:41;;;;;;;5.03;3.03;;;7.40;99.90;;;;;;10539625;28;20207;-79
2021/03/16 00:46:42;;;;;;;4.20;2.80;;;7.40;99.90;;;;;;10521789;28;20600;-80
2021/03/16 00:51:45;;;;;;;4.50;2.83;;;7.40;99.90;;;;;;10504516;28;20195;-80
2021/03/16 00:56:47;;;;;;;3.77;3.43;;;7.40;99.50;;;;;;10473055;28;20220;-79
2021/03/16 01:01:49;;;;;;;5.77;3.47;;;7.40;99.90;;;;;;10495778;28;20203;-81
2021/03/16 01:06:51;;;;;;;3.83;2.93;;;7.30;98.80;;;;;;10494894;28;20215;-80
2021/03/16 01:11:53;;;;;;;6.50;3.03;;;7.30;99.30;;;;;;10496397;28;20203;-81
2021/03/16 01:16:57;;;;;;;3.33;2.70;;;7.30;98.90;;;;;;10494904;28;20214;-80
2021/03/16 01:22:25;;;;;;;5.17;2.83;;;7.30;97.80;;;;;;10497696;28;20196;-79
2021/03/16 01:27:26;;;;;;;3.90;2.90;;;7.20;98.40;;;;;;10481856;28;20213;-80
2021/03/16 01:32:28;;;;;;;6.27;3.00;;;7.30;98.80;;;;;;10501824;28;20201;-81
2021/03/16 01:37:31;;;;;;;3.10;2.60;;;7.30;98.30;;;;;;10506262;28;20220;-79
2021/03/16 01:42:32;;;;;;;4.40;2.80;;;7.30;98.50;;;;;;10504188;28;20197;-80
2021/03/16 01:47:34;;;;;;;4.30;2.90;;;7.30;98.40;;;;;;10509514;28;20231;-80
2021/03/16 01:52:37;;;;;;;3.10;2.60;;;7.40;98.00;;;;;;10501074;28;20205;-78
2021/03/16 01:57:40;;;;;;;5.13;3.00;;;7.40;98.50;;;;;;10498449;28;20253;-80
2021/03/16 02:03:00;;;;;;;5.33;3.10;;;7.30;97.70;;;;;;10496517;28;20568;-80
2021/03/16 02:08:28;;;;;;;6.23;3.40;;;7.30;98.30;;;;;;10499093;28;20220;-81
2021/03/16 02:13:56;;;;;;;3.23;2.90;;;7.30;98.80;;;;;;10500591;28;20201;-81
2021/03/16 02:19:29;;;;;;;5.87;3.20;;;7.30;99.00;;;;;;10474245;22;20221;-77
2021/03/16 02:25:15;;;;;;;4.03;2.90;;;7.30;99.10;;;;;;10393950;28;20204;-78
2021/03/16 02:30:40;;;;;;;4.63;2.90;;;7.30;98.40;;;;;;10393405;28;20622;-77
2021/03/16 02:36:02;;;;;;;4.50;3.07;;;7.30;98.20;;;;;;10387380;28;20191;-77
2021/03/16 02:41:23;;;;;;;2.80;2.60;;;7.20;98.60;;;;;;10390030;28;20621;-77
2021/03/16 02:46:48;;;;;;;10.60;3.20;;;7.10;98.60;;;;;;10386255;28;20248;-77
2021/03/16 02:52:11;;;;;;;4.13;2.80;;;7.10;98.10;;;;;;10390796;28;20201;-77
2021/03/16 02:57:34;;;;;;;3.60;2.97;;;7.10;98.80;;;;;;10390218;28;20214;-77
2021/03/16 03:02:56;;;;;;;4.50;3.03;;;7.10;98.40;;;;;;10389621;28;20199;-78
2021/03/16 03:08:18;;;;;;;4.67;3.20;;;7.10;99.00;;;;;;10388778;28;20230;-78
2021/03/16 03:13:39;;;;;;;5.97;2.90;;;7.10;99.90;;;;;;10406146;28;20205;-77
2021/03/16 03:19:00;;;;;;;5.53;3.20;;;7.00;99.90;;;;;;10388732;28;20315;-77
2021/03/16 03:24:25;;;;;;;5.20;3.13;;;7.00;99.90;;;;;;10385377;28;20273;-77
2021/03/16 03:29:47;;;;;;;6.40;3.57;;;6.90;99.70;;;;;;10390997;28;20252;-77
2021/03/16 03:35:09;;;;;;;4.20;3.70;;;6.90;99.30;;;;;;10384304;28;20198;-77
2021/03/16 03:40:31;;;;;;;6.03;3.10;;;6.90;99.90;;;;;;10389578;28;20214;-77
2021/03/16 03:45:52;;;;;;;3.53;3.23;;;6.90;99.90;;;;;;10387828;28;20263;-77
2021/03/16 03:51:15;;;;;;;5.30;3.00;;;6.90;99.90;;;;;;10384239;28;20245;-77
2021/03/16 03:56:37;;;;;;;4.37;3.10;;;6.90;99.90;;;;;;10387212;28;20198;-77
2021/03/16 04:01:58;;;;;;;5.63;2.60;;;6.90;99.90;;;;;;10386571;28;20224;-77
2021/03/16 04:07:19;;;;;;;3.43;2.70;;;6.90;99.90;;;;;;10387919;28;20292;-77
2021/03/16 04:12:39;;;;;;;4.13;2.43;;;6.90;99.80;;;;;;10383886;28;20198;-77
2021/03/16 04:18:01;;;;;;;4.90;2.50;;;6.90;99.60;;;;;;10368304;28;20236;-77
2021/03/16 04:23:22;;;;;;;4.73;2.33;;;6.90;99.30;;;;;;10369090;28;20190;-77
2021/03/16 04:28:42;;;;;;;2.37;2.20;;;6.90;99.10;;;;;;10368174;28;20229;-77
2021/03/16 04:34:03;;;;;;;6.40;2.70;;;6.90;99.80;;;;;;10370067;28;20202;-77
2021/03/16 04:39:24;;;;;;;2.60;1.90;;;6.90;99.90;;;;;;10367228;28;20301;-77
2021/03/16 04:44:44;;;;;;;7.23;2.60;;;6.90;99.90;;;;;;10346742;28;20277;-77
2021/03/16 04:50:05;;;;;;;3.27;2.37;;;6.90;99.90;;;;;;10379055;28;20230;-77
2021/03/16 04:55:26;;;;;;;5.33;2.13;;;6.90;99.60;;;;;;10374626;28;20191;-77
2021/03/16 05:00:47;;;;;;;2.07;1.70;;;6.80;99.40;;;;;;10367513;28;20222;-77
2021/03/16 05:06:07;;;;;;;4.50;2.33;;;6.80;98.80;;;;;;10375465;28;20238;-77
2021/03/16 05:11:28;;;;;;;3.80;2.20;;;6.80;98.70;;;;;;10376322;28;20240;-76
2021/03/16 05:16:49;;;;;;;3.50;2.87;;;6.80;99.20;;;;;;10370620;28;20632;-76
2021/03/16 05:22:10;;;;;;;2.50;2.30;;;6.80;98.80;;;;;;10375882;28;20280;-77
2021/03/16 05:27:31;;;;;;;2.07;1.70;;;6.80;99.30;;;;;;10383114;28;20225;-77
2021/03/16 05:32:55;;;;;;;2.80;2.30;;;6.80;99.00;;;;;;10343532;28;20581;-77
2021/03/16 05:38:15;;;;;;;3.50;1.83;;;6.80;98.50;;;;;;10379211;28;20271;-76
2021/03/16 05:43:36;;;;;;;3.57;2.93;;;6.80;98.80;;;;;;10371254;28;20372;-77
2021/03/16 05:48:59;;;;;;;3.87;2.23;;;6.80;98.40;;;;;;10374545;28;20296;-77
2021/03/16 05:54:21;;;;;;;3.23;2.10;;;6.80;98.70;;;;;;10374729;28;20201;-77
2021/03/16 05:59:42;;;;;;;4.83;2.60;;;6.80;98.30;;;;;;10362826;28;20249;-76
2021/03/16 06:05:03;;;;;;;6.70;2.70;;;6.90;98.10;;;;;;10368461;28;20202;-76
2021/03/16 06:10:24;;;;;;;3.40;2.33;;;6.90;97.90;;;;;;10371933;28;20237;-76
2021/03/16 06:15:45;;;;;;;6.10;2.67;;;6.90;98.30;;;;;;10371477;28;20755;-76
2021/03/16 06:21:05;;;;;;;6.73;2.60;;;6.90;98.10;;;;;;10358214;28;20233;-76
2021/03/16 06:26:27;;;;;;;4.93;2.20;;;6.90;98.50;;;;;;10332885;28;20238;-77
2021/03/16 06:31:48;;;;;;;3.90;2.80;;;7.00;98.10;;;;;;10372405;28;20217;-76
2021/03/16 06:37:09;;;;;;;5.80;2.80;;;7.00;98.40;;;;;;10357025;28;20222;-77
2021/03/16 06:42:29;;;;;;;6.27;2.73;;;7.00;97.80;;;;;;10368599;28;20233;-77
2021/03/16 06:47:50;;;;;;;6.43;3.50;;;7.00;98.20;;;;;;10342636;28;20273;-77
2021/03/16 06:53:14;;;;;;;5.87;3.23;;;7.10;97.70;;;;;;10367318;28;20230;-76
2021/03/16 06:58:35;;;;;;;5.17;2.77;;;7.10;97.80;;;;;;10381874;28;20231;-77
2021/03/16 07:03:56;;;;;;;4.33;3.43;;;7.20;97.60;;;;;;10368606;28;20209;-77
2021/03/16 07:09:18;;;;;;;5.17;2.80;;;7.20;98.00;;;;;;10352593;28;20230;-77
2021/03/16 07:14:40;;;;;;;5.40;3.07;;;7.20;98.30;;;;;;10354098;28;20385;-77
2021/03/16 07:20:06;;;;;;;4.43;2.47;;;7.20;98.50;;;;;;10361709;28;20230;-76
2021/03/16 07:25:26;;;;;;;8.93;3.10;;;7.10;98.80;;;;;;10359125;28;20632;-77
2021/03/16 07:30:47;;;;;;;6.63;2.60;;;7.00;99.40;;;;;;10359951;28;20603;-77
2021/03/16 07:36:09;;;;;;;4.60;2.77;;;7.00;99.80;;;;;;10345990;28;20206;-77
2021/03/16 07:41:30;;;;;;;4.90;2.90;;;6.90;99.90;;;;;;10345981;28;20218;-76
2021/03/16 07:46:56;;;;;;;6.60;3.10;;;6.80;99.90;;;;;;10361326;28;20210;-76
2021/03/16 07:52:18;;;;;;;6.10;3.30;;;6.60;99.90;;;;;;10362208;28;20232;-76
2021/03/16 07:57:38;;;;;;;8.57;3.50;;;6.70;99.90;;;;;;10375860;28;20540;-77
2021/03/16 08:02:59;;;;;;;6.30;3.17;;;7.00;99.90;;;;;;10340181;28;20295;-76
2021/03/16 08:08:20;;;;;;;6.60;3.10;;;7.10;99.90;;;;;;10318490;28;20238;-77
2021/03/16 08:13:41;;;;;;;7.20;3.10;;;7.20;99.90;;;;;;10358087;28;20276;-77
2021/03/16 08:19:15;;;;;;;2.93;2.70;;;7.30;99.90;;;;;;10454284;22;20678;-78
2021/03/16 08:24:37;;;;;;;7.30;2.67;;;7.30;99.90;;;;;;10531472;28;20207;-79
2021/03/16 08:29:57;;;;;;;6.20;3.27;;;7.30;99.90;;;;;;10532848;28;20219;-78
2021/03/16 08:35:18;;;;;;;5.13;3.57;;;7.40;99.90;;;;;;10520871;28;20199;-80
2021/03/16 08:40:39;;;;;;;7.50;3.23;;;7.40;99.90;;;;;;10531309;28;20273;-80
2021/03/16 08:46:00;;;;;;;6.10;3.60;;;7.50;99.90;;;;;;10546631;28;20239;-79
2021/03/16 08:51:22;;;;;;;6.60;3.33;;;7.60;99.90;;;;;;10526213;28;20322;-82
2021/03/16 08:56:48;;;;;;;5.77;3.33;;;7.80;99.80;;;;;;10535914;28;20558;-79
2021/03/16 09:02:19;;;;;;;4.27;3.00;;;7.80;98.70;;;;;;10535749;28;20214;-79
2021/03/16 09:07:39;;;;;;;6.20;3.73;;;8.00;99.10;;;;;;10526455;28;20223;-79
2021/03/16 09:13:01;;;;;;;7.63;3.30;;;8.20;99.30;;;;;;10521612;28;20191;-79
2021/03/16 09:18:22;;;;;;;4.63;3.10;;;8.20;97.70;;;;;;10534792;28;20212;-79
2021/03/16 09:23:42;;;;;;;6.03;3.50;;;8.20;98.20;;;;;;10531537;28;20936;-79
2021/03/16 09:29:03;;;;;;;7.07;2.70;;;8.20;98.50;;;;;;10531803;28;20326;-79
2021/03/16 09:34:24;;;;;;;5.90;3.90;;;8.00;98.70;;;;;;10545602;28;20286;-79
2021/03/16 09:39:55;;;;;;;11.90;4.23;;;7.80;99.90;;;;;;10531047;28;20223;-81
2021/03/16 09:45:04;;;;;;;7.77;3.90;;;7.70;99.90;;;;;;10527011;28;20279;-79
2021/03/16 09:50:12;;;;;;;4.40;3.73;;;7.80;99.90;;;;;;10515422;28;20223;-78
2021/03/16 09:55:17;;;;;;;4.67;3.03;;;7.90;99.90;;;;;;10534947;28;20199;-79
2021/03/16 10:00:22;;;;;;;7.33;3.60;;;7.90;99.90;;;;;;10535844;28;20311;-79
2021/03/16 10:05:24;;;;;;;2.90;2.70;;;7.90;99.90;;;;;;10535886;28;20289;-79
2021/03/16 10:10:27;;;;;;;6.97;3.53;;;7.90;99.90;;;;;;10537697;28;20223;-80
2021/03/16 10:15:31;;;;;;;6.97;3.80;;;8.00;99.90;;;;;;10525925;28;20207;-80
2021/03/16 10:20:38;;;;;;;6.60;3.90;;;8.00;99.90;;;;;;10538344;28;20234;-80
2021/03/16 10:25:43;;;;;;;4.93;3.63;;;7.90;99.90;;;;;;10535994;28;20273;-81
2021/03/16 10:30:50;;;;;;;4.87;4.30;;;8.00;99.90;;;;;;10539291;28;20234;-80
2021/03/16 10:35:52;;;;;;;7.07;4.20;;;8.30;99.90;;;;;;10516925;28;20629;-80
2021/03/16 10:40:54;;;;;;;10.00;4.27;;;8.50;99.90;;;;;;10537369;28;20256;-80
2021/03/16 10:45:58;;;;;;;9.33;4.37;;;8.80;99.90;;;;;;10552323;28;20211;-80
2021/03/16 10:51:00;;;;;;;7.27;4.00;;;9.00;99.90;;;;;;10554944;28;20686;-81
2021/03/16 10:56:03;;;;;;;8.03;4.20;;;9.10;99.30;;;;;;10532449;28;20191;-80
2021/03/16 11:01:07;;;;;;;8.73;4.30;;;9.30;98.60;;;;;;10532907;28;20224;-80
2021/03/16 11:06:10;;;;;;;5.20;3.80;;;9.40;98.50;;;;;;10534547;28;20571;-80
2021/03/16 11:11:11;;;;;;;6.30;3.90;;;9.40;96.70;;;;;;10521405;28;20217;-79
2021/03/16 11:16:16;;;;;;;8.17;4.27;;;9.40;97.00;;;;;;10524996;28;20226;-80
2021/03/16 11:21:21;;;;;;;11.00;4.10;;;9.30;96.80;;;;;;10509110;28;20684;-79
2021/03/16 11:26:24;;;;;;;3.93;3.43;;;9.30;96.00;;;;;;10526552;28;20200;-81
2021/03/16 11:31:32;;;;;;;5.00;3.87;;;9.30;96.30;;;;;;10538339;28;20219;-80
2021/03/16 11:36:52;;;;;;;7.43;4.00;;;9.30;96.10;;;;;;10558892;28;20578;-80
2021/03/16 11:42:12;;;;;;;4.60;3.50;;;9.20;96.50;;;;;;10543682;28;20203;-79
2021/03/16 11:47:34;;;;;;;4.77;3.37;;;9.20;95.80;;;;;;10558553;28;20288;-81
2021/03/16 11:53:00;;;;;;;5.67;3.40;;;9.00;95.60;;;;;;10558675;28;20257;-81
2021/03/16 11:58:20;;;;;;;4.93;3.50;;;8.80;96.20;;;;;;10546518;28;20212;-81
2021/03/16 12:03:52;;;;;;;5.90;3.43;;;8.60;97.00;;;;;;10561327;28;20207;-81
2021/03/16 12:09:12;;;;;;;6.37;4.00;;;8.50;97.70;;;;;;10543859;28;20223;-81
2021/03/16 12:14:33;;;;;;;7.30;4.07;;;8.60;97.50;;;;;;10545407;28;20199;-81
2021/03/16 12:19:56;;;;;;;5.17;2.80;;;8.60;96.70;;;;;;10544252;28;20611;-81
2021/03/16 12:25:17;;;;;;;5.03;3.80;;;8.70;96.50;;;;;;10561178;28;20203;-81
2021/03/16 12:30:37;;;;;;;5.73;3.37;;;9.00;96.90;;;;;;10531966;28;20274;-80
2021/03/16 12:36:01;;;;;;;7.43;3.37;;;9.20;95.50;;;;;;10518708;28;20369;-80
2021/03/16 12:41:24;;;;;;;5.50;3.40;;;9.50;94.90;;;;;;10545754;28;20222;-80
2021/03/16 12:46:44;;;;;;;3.37;3.07;;;9.60;92.40;;;;;;10532610;28;20250;-80
2021/03/16 12:52:08;;;;;;;6.77;3.73;;;9.60;91.80;;;;;;10542718;28;20709;-79
2021/03/16 12:57:28;;;;;;;3.70;2.90;;;9.60;92.20;;;;;;10540031;28;20216;-80
2021/03/16 13:02:49;;;;;;;4.87;3.53;;;9.50;91.30;;;;;;10517204;28;20683;-81
2021/03/16 13:08:12;;;;;;;3.37;3.07;;;9.30;91.80;;;;;;10536821;28;20235;-81
2021/03/16 13:13:32;;;;;;;8.10;3.50;;;9.30;91.30;;;;;;10545723;28;20670;-82
2021/03/16 13:18:53;;;;;;;5.17;3.43;;;9.40;90.50;;;;;;10545822;28;20223;-80
2021/03/16 13:24:14;;;;;;;3.83;2.73;;;9.40;90.70;;;;;;10550523;28;20314;-81
2021/03/16 13:29:35;;;;;;;3.17;2.60;;;9.40;89.20;;;;;;10542650;28;20216;-82
2021/03/16 13:34:55;;;;;;;5.53;3.33;;;9.30;89.70;;;;;;10553734;28;20192;-81
2021/03/16 13:40:17;;;;;;;3.50;3.07;;;9.40;90.40;;;;;;10540422;28;20208;-82
2021/03/16 13:45:37;;;;;;;4.00;2.60;;;9.50;89.40;;;;;;10554119;28;20275;-81
2021/03/16 13:51:00;;;;;;;4.33;2.17;;;9.60;88.00;;;;;;10537647;28;20259;-82
2021/03/16 13:56:21;;;;;;;3.33;2.40;;;9.80;89.00;;;;;;10551907;28;20195;-82
2021/03/16 14:01:42;;;;;;;3.47;2.40;;;9.90;89.60;;;;;;10550110;28;20266;-78
2021/03/16 14:07:04;;;;;;;4.73;2.40;;;9.90;85.30;;;;;;10534284;28;20215;-79
2021/03/16 14:12:29;;;;;;;2.27;2.07;;;9.70;84.70;;;;;;10546823;28;21105;-79
2021/03/16 14:17:49;;;;;;;3.50;2.40;;;9.70;87.10;;;;;;10533616;28;20230;-79
2021/03/16 14:23:11;;;;;;;3.67;1.97;;;9.70;86.20;;;;;;10548290;28;20207;-80
2021/03/16 14:28:32;;;;;;;2.60;1.87;;;9.80;87.80;;;;;;10557604;27;20231;-80
2021/03/16 14:33:52;;;;;;;1.90;1.80;;;9.90;85.50;;;;;;10532526;28;20257;-80
2021/03/16 14:39:12;;;;;;;3.13;1.67;;;9.80;85.40;;;;;;10534043;28;20530;-79
2021/03/16 14:44:33;;;;;;;2.10;2.00;;;9.70;83.60;;;;;;10530152;28;20200;-79
2021/03/16 14:49:54;;;;;;;2.80;1.80;;;9.70;84.00;;;;;;10529350;28;20227;-78
2021/03/16 14:55:16;;;;;;;1.93;1.77;;;9.70;84.80;;;;;;10536616;28;20196;-80
2021/03/16 15:00:37;;;;;;;2.23;1.87;;;9.70;86.20;;;;;;10519993;28;20224;-79
2021/03/16 15:05:58;;;;;;;4.30;2.33;;;9.60;83.30;;;;;;10522042;28;20196;-81
2021/03/16 15:11:18;;;;;;;4.00;2.10;;;9.60;84.20;;;;;;10515984;28;20219;-78
2021/03/16 15:16:39;;;;;;;2.40;1.60;;;9.70;83.00;;;;;;10522041;28;20292;-80
2021/03/16 15:21:59;;;;;;;2.30;1.80;;;9.70;85.50;;;;;;10528846;28;20230;-77
2021/03/16 15:27:20;;;;;;;3.60;2.70;;;9.70;87.30;;;;;;10528544;28;20225;-79
2021/03/16 15:32:44;;;;;;;2.83;2.13;;;9.70;85.20;;;;;;10505714;28;20260;-80
2021/03/16 15:38:04;;;;;;;4.57;2.23;;;9.60;83.50;;;;;;10513853;28;20301;-79
2021/03/16 15:43:25;;;;;;;2.50;1.60;;;9.50;85.10;;;;;;10519096;28;20206;-78
2021/03/16 15:48:46;;;;;;;3.67;2.40;;;9.40;85.90;;;;;;10512493;28;20217;-78
2021/03/16 15:54:08;;;;;;;2.43;2.07;;;9.40;85.00;;;;;;10518056;28;20204;-78
2021/03/16 15:59:31;;;;;;;2.73;2.40;;;9.30;83.50;;;;;;10498634;28;20215;-78
2021/03/16 16:04:54;;;;;;;5.13;2.00;;;9.30;86.90;;;;;;10514720;28;20192;-78
2021/03/16 16:10:18;;;;;;;4.93;2.87;;;9.10;84.70;;;;;;10503445;28;20220;-78
2021/03/16 16:15:42;;;;;;;3.13;2.50;;;9.00;87.90;;;;;;10522683;28;20195;-78
2021/03/16 16:21:08;;;;;;;3.97;2.80;;;9.00;88.50;;;;;;10529829;28;20587;-78
2021/03/16 16:26:32;;;;;;;3.93;2.53;;;8.90;88.60;;;;;;10538294;28;20203;-79
2021/03/16 16:31:55;;;;;;;4.90;3.00;;;8.80;90.40;;;;;;10524160;28;20656;-80
2021/03/16 16:37:25;;;;;;;3.77;3.23;;;8.70;89.60;;;;;;10539187;28;20396;-79
2021/03/16 16:42:46;;;;;;;4.30;3.90;;;8.50;92.70;;;;;;10528127;28;20278;-79
2021/03/16 16:48:07;;;;;;;4.20;3.80;;;8.20;94.80;;;;;;10526868;28;20216;-79
2021/03/16 16:53:33;;;;;;;5.20;4.37;;;7.90;96.10;;;;;;10527835;28;20248;-78
2021/03/16 16:58:53;;;;;;;6.83;4.47;;;7.70;97.30;;;;;;10526283;28;20576;-79
2021/03/16 17:04:14;;;;;;;5.37;4.00;;;7.50;98.20;;;;;;10526803;28;20203;-78
2021/03/16 17:09:36;;;;;;;6.20;3.93;;;7.40;98.20;;;;;;10524238;28;20793;-79
2021/03/16 17:14:59;;;;;;;4.70;3.90;;;7.40;98.40;;;;;;10523306;28;20736;-79
2021/03/16 17:20:20;;;;;;;5.50;4.37;;;7.30;98.60;;;;;;10542602;28;20239;-78
2021/03/16 17:25:41;;;;;;;4.40;4.00;;;7.30;98.70;;;;;;10514859;28;20202;-79
2021/03/16 17:31:07;;;;;;;4.47;4.10;;;7.40;99.20;;;;;;10529647;28;20291;-79
2021/03/16 17:36:27;;;;;;;4.90;4.40;;;7.50;99.50;;;;;;10527260;28;20196;-79
2021/03/16 17:41:49;;;;;;;5.87;4.30;;;7.60;99.60;;;;;;10527674;28;20215;-79
2021/03/16 17:47:09;;;;;;;5.80;4.67;;;7.40;99.70;;;;;;10526308;28;20216;-79
2021/03/16 17:52:30;;;;;;;4.43;4.10;;;7.20;99.90;;;;;;10527988;28;20808;-79
2021/03/16 17:57:52;;;;;;;5.07;4.53;;;7.00;99.90;;;;;;10528616;28;20238;-78
2021/03/16 18:03:21;;;;;;;9.10;5.40;;;6.80;99.90;;;;;;10528465;28;20613;-78
2021/03/16 18:08:44;;;;;;;6.00;5.37;;;6.60;99.90;;;;;;10527872;28;20251;-79
2021/03/16 18:14:06;;;;;;;7.00;6.23;;;6.50;99.90;;;;;;10534553;28;20611;-79
2021/03/16 18:19:26;;;;;;;9.60;6.07;;;6.50;99.90;;;;;;10534086;28;20216;-79
2021/03/16 18:24:46;;;;;;;8.60;6.80;;;6.50;99.90;;;;;;10533076;28;20206;-79
2021/03/16 18:30:11;;;;;;;7.00;6.00;;;6.50;99.90;;;;;;10542714;28;20236;-81
2021/03/16 18:35:31;;;;;;;7.90;7.07;;;6.50;99.90;;;;;;10549500;28;20445;-79
2021/03/16 18:40:54;;;;;;;7.50;6.47;;;6.50;99.90;;;;;;10558582;28;20215;-81
2021/03/16 18:46:17;;;;;;;13.47;8.87;;;6.50;99.90;;;;;;10523967;28;20196;-81
2021/03/16 18:51:38;;;;;;;9.30;8.40;;;6.50;99.90;;;;;;10523303;28;20691;-79
2021/03/16 18:57:00;;;;;;;7.70;6.90;;;6.60;99.90;;;;;;10530608;28;20195;-81
2021/03/16 19:02:21;;;;;;;10.70;7.33;;;6.70;99.90;;;;;;10531475;28;20207;-77
2021/03/16 19:07:44;;;;;;;11.57;6.60;;;6.70;99.90;;;;;;10545362;28;20236;-80
2021/03/16 19:13:05;;;;;;;12.40;7.67;;;6.70;99.90;;;;;;10532686;28;20192;-80
2021/03/16 19:18:28;;;;;;;12.90;8.53;;;6.70;99.90;;;;;;10534457;28;20234;-82
2021/03/16 19:23:48;;;;;;;8.47;7.63;;;6.70;99.90;;;;;;10520368;28;20314;-81
2021/03/16 19:29:08;;;;;;;9.47;7.43;;;6.70;99.90;;;;;;10556207;27;20247;-81
2021/03/16 19:34:29;;;;;;;7.40;6.70;;;6.70;99.90;;;;;;10529315;28;20207;-80
2021/03/16 19:39:54;;;;;;;11.20;7.07;;;6.60;99.90;;;;;;10529002;28;20218;-79
2021/03/16 19:45:17;;;;;;;11.70;7.07;;;6.50;99.90;;;;;;10528139;28;20196;-81
2021/03/16 19:50:39;;;;;;;10.70;7.80;;;6.50;99.90;;;;;;10528912;28;20217;-80
2021/03/16 19:55:59;;;;;;;9.43;6.77;;;6.50;99.90;;;;;;10528418;28;20726;-79
2021/03/16 20:01:19;;;;;;;6.40;5.90;;;6.50;99.90;;;;;;10544019;28;20222;-79
2021/03/16 20:06:40;;;;;;;7.33;6.53;;;6.60;99.90;;;;;;10527531;28;20199;-82
2021/03/16 20:12:01;;;;;;;5.97;5.47;;;6.60;99.90;;;;;;10527451;28;20302;-80
2021/03/16 20:17:21;;;;;;;6.63;5.93;;;6.60;99.90;;;;;;10548696;28;22058;-79
2021/03/16 20:22:46;;;;;;;5.63;5.13;;;6.70;99.90;;;;;;10531685;28;20573;-79
2021/03/16 20:28:09;;;;;;;5.80;5.13;;;6.70;99.90;;;;;;10556555;28;20223;-79
2021/03/16 20:33:29;;;;;;;5.50;5.00;;;6.70;99.90;;;;;;10546097;28;20196;-82
2021/03/16 20:38:50;;;;;;;4.63;4.23;;;6.70;99.90;;;;;;10532254;28;20218;-81
2021/03/16 20:44:11;;;;;;;5.20;4.80;;;6.70;99.90;;;;;;10532871;28;20675;-82
2021/03/16 20:49:32;;;;;;;5.00;4.60;;;6.70;99.90;;;;;;10533057;28;20279;-82
2021/03/16 20:54:53;;;;;;;5.73;4.10;;;6.70;99.90;;;;;;10528309;28;20200;-82
2021/03/16 21:00:16;;;;;;;4.90;4.40;;;6.70;99.90;;;;;;10519945;28;20239;-80
2021/03/16 21:05:37;;;;;;;4.50;4.10;;;6.70;99.90;;;;;;10522089;28;20203;-83
2021/03/16 21:11:00;;;;;;;4.87;4.47;;;6.80;99.90;;;;;;10523584;28;20588;-83
2021/03/16 21:16:20;;;;;;;4.97;4.50;;;6.80;99.90;;;;;;10530260;28;20297;-81
2021/03/16 21:21:41;;;;;;;4.73;4.13;;;6.80;99.90;;;;;;10539290;28;20746;-82
2021/03/16 21:27:02;;;;;;;4.80;4.40;;;6.80;99.90;;;;;;10555145;28;20219;-81
2021/03/16 21:32:22;;;;;;;3.80;3.50;;;6.90;99.90;;;;;;10556593;28;20294;-81
2021/03/16 21:37:43;;;;;;;3.93;3.60;;;6.90;99.90;;;;;;10557829;28;20254;-80
2021/03/16 21:43:04;;;;;;;4.83;3.93;;;7.00;99.90;;;;;;10532130;28;20546;-79
2021/03/16 21:48:25;;;;;;;4.03;3.73;;;7.00;99.90;;;;;;10549427;28;20223;-79
2021/03/16 21:53:45;;;;;;;4.40;4.10;;;7.00;99.90;;;;;;10518553;28;20314;-79
2021/03/16 21:59:06;;;;;;;3.80;3.50;;;7.10;99.90;;;;;;10542989;28;20222;-77
2021/03/16 22:04:32;;;;;;;3.53;3.23;;;7.10;99.90;;;;;;10541943;28;20200;-78
2021/03/16 22:09:52;;;;;;;4.63;4.17;;;7.10;99.90;;;;;;10542273;28;20515;-78
2021/03/16 22:15:16;;;;;;;3.80;3.50;;;7.10;99.90;;;;;;10551941;28;20206;-79
2021/03/16 22:20:37;;;;;;;3.43;3.23;;;7.00;99.90;;;;;;10533368;28;20224;-79
2021/03/16 22:25:57;;;;;;;4.30;3.90;;;7.10;99.90;;;;;;10531349;28;20674;-79
2021/03/16 22:31:18;;;;;;;4.20;3.90;;;7.10;99.90;;;;;;10531099;28;20673;-78
2021/03/16 22:36:39;;;;;;;3.80;3.50;;;7.10;99.90;;;;;;10543332;28;20198;-79
2021/03/16 22:41:58;;;;;;;3.53;3.23;;;7.10;99.90;;;;;;10534228;28;20215;-81
2021/03/16 22:47:20;;;;;;;4.13;3.83;;;7.10;99.90;;;;;;10548190;28;20239;-79
2021/03/16 22:52:40;;;;;;;3.87;3.50;;;7.10;99.90;;;;;;10545898;28;20230;-79
2021/03/16 22:58:00;;;;;;;3.97;3.67;;;7.10;99.90;;;;;;10531427;28;20243;-79
2021/03/16 23:03:21;;;;;;;3.10;2.90;;;7.10;99.90;;;;;;10533768;28;20523;-78
2021/03/16 23:08:42;;;;;;;3.17;2.97;;;7.00;99.90;;;;;;10534242;28;20364;-81
2021/03/16 23:14:02;;;;;;;4.10;3.80;;;7.10;99.90;;;;;;10532283;28;20235;-78
2021/03/16 23:19:24;;;;;;;4.00;3.60;;;7.10;99.90;;;;;;10548515;28;20288;-81
2021/03/16 23:24:44;;;;;;;3.80;3.50;;;7.10;99.90;;;;;;10533286;28;20203;-79
2021/03/16 23:30:08;;;;;;;4.00;3.70;;;7.10;99.90;;;;;;10532978;28;20222;-80
2021/03/16 23:35:29;;;;;;;4.13;3.40;;;7.10;99.90;;;;;;10545199;28;20223;-81
2021/03/16 23:40:52;;;;;;;3.30;3.10;;;7.10;99.90;;;;;;10550897;28;20277;-80
2021/03/16 23:46:12;;;;;;;3.30;3.10;;;7.10;99.90;;;;;;10543998;28;20211;-80
2021/03/16 23:51:34;;;;;;;3.13;2.93;;;7.10;99.90;;;;;;10570461;28;20707;-78
2021/03/16 23:56:55;;;;;;;3.57;3.30;;;7.10;99.90;;;;;;10557218;28;20685;-79
